Time;durP1;ratioP1;P1;durP2;ratioP2;P2;SDS_P1;SDS_P2;PMS_P1;PMS_P2;Temp;Humidity;BMP_temperature;BMP_pressure;BME280_temperature;BME280_humidity;BME280_pressure;Samples;Min_cycle;Max_cycle;Signal;HPM_P1;HPM_P2
2022/09/03 00:00:54;;;;;;;;;7.00;6.00;;;;;22.74;43.49;100447.31;5120911;27;45344;-59
2022/09/03 00:03:27;;;;;;;;;5.25;4.25;;;;;22.70;43.40;100438.66;5102074;27;47101;-59
2022/09/03 00:06:10;;;;;;;;;7.25;6.25;;;;;22.69;43.62;100441.41;5119123;27;45258;-59
2022/09/03 00:09:00;;;;;;;;;5.75;5.25;;;;;22.66;43.41;100439.81;5120843;27;45495;-58
2022/09/03 00:11:32;;;;;;;;;4.50;4.50;;;;;22.62;43.55;100441.00;5106348;27;45295;-59
2022/09/03 00:14:14;;;;;;;;;9.00;7.75;;;;;22.58;43.82;100438.63;5120368;27;45425;-59
2022/09/03 00:16:55;;;;;;;;;5.00;5.00;;;;;22.57;43.52;100432.44;5102364;27;45354;-60
2022/09/03 00:19:27;;;;;;;;;5.50;4.25;;;;;22.58;43.86;100441.31;5120375;27;45314;-59
2022/09/03 00:22:01;;;;;;;;;6.00;6.00;;;;;22.55;43.84;100439.69;5120699;27;45406;-59
2022/09/03 00:24:32;;;;;;;;;7.00;5.25;;;;;22.54;43.66;100435.31;5120818;27;45317;-59
2022/09/03 00:27:02;;;;;;;;;7.00;7.00;;;;;22.49;44.05;100426.75;5120514;27;45247;-59
2022/09/03 00:29:36;;;;;;;;;6.00;5.00;;;;;22.52;44.00;100432.75;5120469;27;45321;-59
2022/09/03 00:32:09;;;;;;;;;8.75;8.00;;;;;22.47;44.04;100417.97;5101881;27;45374;-59
2022/09/03 00:34:40;;;;;;;;;7.00;7.00;;;;;22.53;44.23;100425.59;5122636;27;46220;-59
2022/09/03 00:37:07;;;;;;;;;7.25;5.75;;;;;22.53;43.94;100423.75;5123471;27;45444;-60
2022/09/03 00:39:34;;;;;;;;;7.75;7.75;;;;;22.52;44.29;100431.91;5123975;27;45532;-59
2022/09/03 00:42:19;;;;;;;;;8.25;8.25;;;;;22.54;43.85;100437.97;5123606;27;45617;-60
2022/09/03 00:44:57;;;;;;;;;7.25;7.25;;;;;22.54;44.06;100435.31;5116718;27;45417;-59
2022/09/03 00:47:40;;;;;;;;;7.25;6.50;;;;;22.54;44.49;100437.97;5103695;27;45335;-59
2022/09/03 00:50:25;;;;;;;;;6.50;6.00;;;;;22.55;44.35;100439.69;5120796;27;45386;-59
2022/09/03 00:53:05;;;;;;;;;11.25;8.50;;;;;22.52;44.12;100437.25;5116948;27;45244;-59
2022/09/03 00:56:00;;;;;;;;;7.25;7.25;;;;;22.54;44.40;100444.22;5123814;27;46167;-59
2022/09/03 00:58:57;;;;;;;;;8.00;7.00;;;;;22.53;44.28;100450.53;5123586;27;45239;-59
2022/09/03 01:01:33;;;;;;;;;8.25;7.25;;;;;22.54;44.66;100451.38;5105120;27;45370;-59
2022/09/03 01:04:33;;;;;;;;;9.50;9.00;;;;;22.54;44.52;100452.25;5123576;27;45309;-59
2022/09/03 01:07:14;;;;;;;;;8.50;8.00;;;;;22.51;44.66;100447.09;5100992;27;46418;-59
2022/09/03 01:09:56;;;;;;;;;8.25;8.25;;;;;22.53;44.42;100444.31;5123544;27;45481;-59
2022/09/03 01:12:58;;;;;;;;;7.00;5.25;;;;;22.52;44.41;100445.28;5123588;27;45241;-59
2022/09/03 01:15:30;;;;;;;;;6.00;6.00;;;;;22.54;44.85;100444.22;5123557;27;45341;-59
2022/09/03 01:18:02;;;;;;;;;7.00;7.00;;;;;22.54;44.64;100440.66;5123040;27;46988;-59
2022/09/03 01:20:54;;;;;;;;;7.00;7.00;;;;;22.54;44.81;100440.66;5123249;27;45299;-60
2022/09/03 01:23:52;;;;;;;;;8.25;7.25;;;;;22.49;45.15;100443.69;5123724;27;45488;-59
2022/09/03 01:26:38;;;;;;;;;10.00;10.00;;;;;22.52;44.95;100447.97;5121618;27;45276;-59
2022/09/03 01:29:24;;;;;;;;;8.00;8.00;;;;;22.49;45.36;100446.34;5122760;27;45340;-60
2022/09/03 01:32:00;;;;;;;;;8.00;8.00;;;;;22.49;45.43;100448.16;5123001;27;45453;-59
2022/09/03 01:34:40;;;;;;;;;9.25;8.50;;;;;22.47;45.00;100450.94;5104317;27;45397;-59
2022/09/03 01:37:35;;;;;;;;;10.00;10.00;;;;;22.46;45.34;100454.59;5122558;27;45170;-60
2022/09/03 01:40:13;;;;;;;;;10.50;9.25;;;;;22.45;45.10;100446.66;5122941;27;45397;-59
2022/09/03 01:42:47;;;;;;;;;7.00;7.00;;;;;22.32;45.38;100436.75;5122365;27;45298;-59
2022/09/03 01:45:37;;;;;;;;;7.75;6.00;;;;;22.43;45.31;100453.94;5122783;27;45149;-60
2022/09/03 01:48:29;;;;;;;;;6.75;6.75;;;;;22.42;45.11;100450.41;5122499;27;45318;-59
2022/09/03 01:51:07;;;;;;;;;8.25;8.25;;;;;22.42;45.25;100452.25;5122559;27;46370;-60
2022/09/03 01:54:10;;;;;;;;;8.75;8.25;;;;;22.42;45.50;100453.09;5122980;27;45335;-59
2022/09/03 01:56:58;;;;;;;;;9.00;7.00;;;;;22.39;45.37;100443.44;5122625;27;45385;-60
2022/09/03 01:59:26;;;;;;;;;8.75;7.25;;;;;22.40;45.53;100446.97;5122602;27;45449;-60
2022/09/03 02:02:18;;;;;;;;;8.00;8.00;;;;;22.39;45.41;100448.81;5122776;27;45604;-59
2022/09/03 02:04:58;;;;;;;;;8.00;8.00;;;;;22.40;45.43;100449.66;5122071;27;45571;-59
2022/09/03 02:07:26;;;;;;;;;8.00;8.00;;;;;22.38;45.69;100449.75;5122573;27;45390;-59
2022/09/03 02:09:51;;;;;;;;;9.00;8.25;;;;;22.38;45.54;100448.91;5121340;27;45472;-60
2022/09/03 02:12:19;;;;;;;;;9.00;9.00;;;;;22.38;46.24;100447.09;5120984;27;48823;-59
2022/09/03 02:14:45;;;;;;;;;8.00;7.50;;;;;22.35;45.74;100444.59;5122821;27;45469;-59
2022/09/03 02:17:11;;;;;;;;;11.00;9.25;;;;;22.34;46.37;100440.19;5122184;27;45223;-60
2022/09/03 02:19:37;;;;;;;;;10.75;9.25;;;;;22.29;46.24;100434.31;5122528;27;45482;-58
2022/09/03 02:22:04;;;;;;;;;16.00;13.00;;;;;22.29;46.38;100439.66;5103477;27;47106;-58
2022/09/03 02:24:29;;;;;;;;;10.50;9.50;;;;;22.28;46.34;100437.94;5122299;27;45349;-61
2022/09/03 02:26:55;;;;;;;;;13.00;10.00;;;;;22.23;46.30;100437.41;5122233;27;45499;-58
2022/09/03 02:29:22;;;;;;;;;11.25;9.00;;;;;22.24;46.60;100452.50;5122367;27;45508;-58
2022/09/03 02:31:47;;;;;;;;;10.75;9.75;;;;;22.23;46.46;100453.47;5122067;27;46426;-59
2022/09/03 02:34:13;;;;;;;;;12.75;11.00;;;;;22.20;46.80;100449.19;5122018;27;45378;-59
2022/09/03 02:36:42;;;;;;;;;8.75;8.75;;;;;22.16;46.56;100453.03;5122077;27;45374;-58
2022/09/03 02:39:07;;;;;;;;;9.50;9.50;;;;;22.12;46.90;100446.16;5103157;27;45990;-59
2022/09/03 02:41:33;;;;;;;;;12.75;10.75;;;;;22.11;46.71;100449.78;5121781;27;45372;-59
2022/09/03 02:44:02;;;;;;;;;9.25;9.25;;;;;22.10;47.15;100448.09;5122102;27;45367;-59
2022/09/03 02:46:47;;;;;;;;;11.00;11.00;;;;;22.06;46.88;100451.91;5122067;27;45275;-59
2022/09/03 02:49:12;;;;;;;;;11.50;9.75;;;;;22.05;47.01;100453.75;5121833;27;45359;-59
2022/09/03 02:51:40;;;;;;;;;12.50;12.25;;;;;22.02;47.06;100445.91;5121738;27;46200;-59
2022/09/03 02:54:07;;;;;;;;;10.50;9.75;;;;;22.01;47.24;100452.25;5121838;27;45549;-59
2022/09/03 02:56:32;;;;;;;;;10.00;10.00;;;;;22.00;47.74;100450.50;5120633;27;45309;-59
2022/09/03 02:58:59;;;;;;;;;11.00;10.75;;;;;21.96;47.20;100441.00;5121269;27;45391;-59
2022/09/03 03:01:25;;;;;;;;;12.25;10.00;;;;;21.96;47.32;100446.34;5121981;27;47096;-59
2022/09/03 03:03:50;;;;;;;;;11.50;10.75;;;;;21.92;47.48;100436.78;5121443;27;45433;-59
2022/09/03 03:06:19;;;;;;;;;11.25;11.25;;;;;21.94;47.30;100439.34;5121900;27;45488;-59
2022/09/03 03:08:45;;;;;;;;;10.50;9.25;;;;;21.87;47.65;100436.22;5121648;27;45219;-59
2022/09/03 03:11:12;;;;;;;;;9.00;7.75;;;;;21.89;47.71;100440.53;5121616;27;45380;-59
2022/09/03 03:13:37;;;;;;;;;10.75;10.75;;;;;21.88;47.88;100437.94;5120205;27;45274;-59
2022/09/03 03:16:07;;;;;;;;;14.25;13.00;;;;;21.87;47.64;100441.59;5120424;27;45511;-59
2022/09/03 03:18:33;;;;;;;;;12.50;11.50;;;;;21.86;47.64;100446.09;5121298;27;45508;-59
2022/09/03 03:21:12;;;;;;;;;11.25;10.25;;;;;21.86;47.62;100451.44;5120148;27;46102;-59
2022/09/03 03:23:38;;;;;;;;;10.75;9.50;;;;;21.85;47.71;100451.53;5121239;27;45403;-59
2022/09/03 03:26:06;;;;;;;;;12.25;11.50;;;;;21.84;47.40;100453.34;5121763;27;45258;-59
2022/09/03 03:28:32;;;;;;;;;13.25;12.50;;;;;21.84;47.52;100447.16;5121064;27;45551;-59
2022/09/03 03:30:58;;;;;;;;;14.00;12.50;;;;;21.83;47.95;100440.06;5121157;27;45413;-59
2022/09/03 03:33:23;;;;;;;;;12.00;12.00;;;;;21.78;47.84;100442.19;5119531;27;45418;-60
2022/09/03 03:35:48;;;;;;;;;12.50;12.50;;;;;21.80;47.85;100442.94;5121551;27;45350;-60
2022/09/03 03:38:14;;;;;;;;;11.00;10.00;;;;;21.74;48.16;100436.19;5101766;27;48018;-59
2022/09/03 03:40:40;;;;;;;;;11.00;11.00;;;;;21.73;48.46;100438.00;5121133;27;46205;-59
2022/09/03 03:43:05;;;;;;;;;13.00;13.00;;;;;21.72;47.89;100438.97;5120790;27;48733;-59
2022/09/03 03:45:30;;;;;;;;;13.00;13.00;;;;;21.71;48.16;100434.59;5102988;27;45252;-59
2022/09/03 03:47:58;;;;;;;;;10.50;10.50;;;;;21.70;48.51;100435.53;5102265;27;45452;-59
2022/09/03 03:50:23;;;;;;;;;14.00;12.75;;;;;21.69;48.05;100433.81;5121086;27;46919;-59
2022/09/03 03:52:48;;;;;;;;;13.00;12.00;;;;;21.69;47.85;100431.16;5120921;27;45224;-59
2022/09/03 03:55:14;;;;;;;;;11.50;11.00;;;;;21.67;48.53;100432.22;5121005;27;49653;-59
2022/09/03 03:57:39;;;;;;;;;13.25;11.00;;;;;21.66;48.08;100434.03;5102311;27;45249;-59
2022/09/03 04:00:05;;;;;;;;;13.50;12.50;;;;;21.63;48.09;100430.69;5120901;27;47283;-59
2022/09/03 04:02:30;;;;;;;;;11.75;11.25;;;;;21.61;48.48;100433.47;5119444;27;45856;-59
2022/09/03 04:04:55;;;;;;;;;11.00;11.00;;;;;21.58;48.25;100423.84;5121305;27;45349;-59
2022/09/03 04:07:21;;;;;;;;;11.00;9.25;;;;;21.59;48.60;100432.72;5120723;27;45278;-58
2022/09/03 04:09:46;;;;;;;;;12.00;11.00;;;;;21.55;48.75;100428.50;5123723;27;46053;-58
2022/09/03 04:12:11;;;;;;;;;11.50;9.75;;;;;21.52;48.49;100426.88;5124220;27;45322;-58
2022/09/03 04:14:37;;;;;;;;;10.50;10.50;;;;;21.49;49.33;100426.22;5124780;27;45231;-59
2022/09/03 04:17:03;;;;;;;;;11.75;11.50;;;;;21.46;48.77;100431.75;5123584;27;45307;-59
2022/09/03 04:19:29;;;;;;;;;11.50;10.75;;;;;21.44;49.13;100431.84;5124039;27;46096;-62
2022/09/03 04:21:54;;;;;;;;;10.50;10.50;;;;;21.36;48.91;100426.16;5124291;27;45458;-59
2022/09/03 04:24:20;;;;;;;;;12.00;11.75;;;;;21.37;49.10;100435.88;5124457;27;45232;-59
2022/09/03 04:26:46;;;;;;;;;12.50;12.00;;;;;21.34;49.09;100430.75;5124183;27;45169;-58
2022/09/03 04:29:11;;;;;;;;;10.00;9.00;;;;;21.31;49.42;100430.91;5124124;27;46364;-58
2022/09/03 04:31:37;;;;;;;;;11.75;10.75;;;;;21.28;49.17;100431.97;5123791;27;45305;-58
2022/09/03 04:34:05;;;;;;;;;12.00;11.00;;;;;21.28;49.08;100429.31;5124208;27;45301;-58
2022/09/03 04:36:30;;;;;;;;;12.00;10.00;;;;;21.26;49.54;100431.25;5123931;27;45391;-59
2022/09/03 04:38:59;;;;;;;;;15.00;12.75;;;;;21.26;49.34;100431.25;5123792;27;46030;-58
2022/09/03 04:41:26;;;;;;;;;10.50;10.50;;;;;21.22;49.75;100427.03;5123996;27;45318;-58
2022/09/03 04:43:54;;;;;;;;;11.25;11.25;;;;;21.24;49.72;100430.47;5124023;27;45180;-58
2022/09/03 04:46:21;;;;;;;;;14.00;12.75;;;;;21.24;49.54;100430.47;5123916;27;45383;-58
2022/09/03 04:48:51;;;;;;;;;12.25;11.00;;;;;21.22;49.49;100435.03;5123513;27;45276;-58
2022/09/03 04:51:20;;;;;;;;;14.25;13.50;;;;;21.21;49.58;100428.00;5118427;27;45277;-58
2022/09/03 04:53:46;;;;;;;;;11.50;11.50;;;;;21.22;49.91;100435.03;5103400;27;45429;-58
2022/09/03 04:56:13;;;;;;;;;12.00;11.25;;;;;21.20;49.69;100435.16;5103086;27;45394;-59
2022/09/03 04:58:38;;;;;;;;;11.00;11.00;;;;;21.22;49.50;100445.72;5102764;27;46198;-59
2022/09/03 05:01:08;;;;;;;;;13.50;10.75;;;;;21.20;50.12;100443.16;5103035;27;45379;-59
2022/09/03 05:03:36;;;;;;;;;14.50;12.50;;;;;21.15;50.30;100442.59;5103138;27;45355;-59
2022/09/03 05:06:02;;;;;;;;;12.50;10.50;;;;;21.15;50.38;100447.09;5084724;27;45469;-58
2022/09/03 05:08:27;;;;;;;;;13.00;12.00;;;;;21.16;50.23;100455.00;5102916;27;45252;-58
2022/09/03 05:10:59;;;;;;;;;12.25;12.25;;;;;21.15;50.07;100455.97;5102866;27;45462;-58
2022/09/03 05:13:25;;;;;;;;;9.75;9.75;;;;;21.13;50.14;100457.00;5103208;27;45561;-58
2022/09/03 05:15:50;;;;;;;;;13.50;13.50;;;;;21.10;50.20;100448.22;5102674;27;45331;-58
2022/09/03 05:18:16;;;;;;;;;9.00;9.00;;;;;21.08;50.54;100449.28;5102614;27;46246;-58
2022/09/03 05:20:42;;;;;;;;;11.00;10.75;;;;;21.07;50.40;100448.44;5101658;27;45500;-58
2022/09/03 05:23:07;;;;;;;;;14.75;12.25;;;;;21.06;50.22;100441.38;5103127;27;45304;-58
2022/09/03 05:25:32;;;;;;;;;12.50;10.75;;;;;21.03;50.10;100451.38;5102775;27;45516;-58
2022/09/03 05:27:58;;;;;;;;;12.00;12.00;;;;;20.98;50.42;100459.69;5102532;27;46354;-58
2022/09/03 05:30:25;;;;;;;;;11.50;11.50;;;;;20.96;50.56;100455.41;5102575;27;45627;-58
2022/09/03 05:32:50;;;;;;;;;11.00;11.00;;;;;20.94;50.73;100455.47;5102630;27;45296;-59
2022/09/03 05:35:16;;;;;;;;;9.50;9.50;;;;;20.91;50.76;100451.19;5083978;27;45509;-59
2022/09/03 05:37:41;;;;;;;;;13.00;12.00;;;;;20.91;50.34;100450.34;5100771;27;45998;-59
2022/09/03 05:40:09;;;;;;;;;10.00;10.00;;;;;20.87;51.07;100451.50;5107869;27;46066;-59
2022/09/03 05:42:37;;;;;;;;;11.25;9.50;;;;;20.82;50.69;100456.25;5123255;27;45632;-59
2022/09/03 05:45:09;;;;;;;;;13.25;11.50;;;;;20.80;50.92;100455.50;5122850;27;46382;-59
2022/09/03 05:47:36;;;;;;;;;11.00;11.00;;;;;20.79;50.62;100459.97;5122691;27;46333;-59
2022/09/03 05:50:01;;;;;;;;;18.00;15.25;;;;;20.78;50.57;100466.28;5122858;27;45322;-59
2022/09/03 05:52:27;;;;;;;;;15.25;12.25;;;;;20.78;50.99;100469.78;5123211;27;45309;-59
2022/09/03 05:54:52;;;;;;;;;15.25;12.75;;;;;20.74;51.30;100480.75;5122761;27;45394;-59
2022/09/03 05:57:17;;;;;;;;;12.25;11.75;;;;;20.72;51.35;100483.50;5122550;27;46122;-58
2022/09/03 05:59:43;;;;;;;;;15.00;13.50;;;;;20.68;51.15;100487.31;5122705;27;46889;-59
2022/09/03 06:02:08;;;;;;;;;13.00;11.25;;;;;20.66;51.13;100481.19;5122536;27;45252;-58
2022/09/03 06:04:33;;;;;;;;;14.00;11.00;;;;;20.61;51.58;100485.94;5122695;27;45310;-58
2022/09/03 06:06:58;;;;;;;;;12.75;12.75;;;;;20.63;51.66;100486.72;5120995;27;46523;-61
2022/09/03 06:09:24;;;;;;;;;16.00;16.00;;;;;20.60;51.62;100481.56;5122388;27;45394;-61
2022/09/03 06:11:50;;;;;;;;;14.00;14.00;;;;;20.59;51.77;100488.72;5104365;27;45253;-60
2022/09/03 06:14:16;;;;;;;;;12.00;11.00;;;;;20.58;51.45;100488.81;5122382;27;45328;-60
2022/09/03 06:16:44;;;;;;;;;15.00;13.75;;;;;20.62;51.71;100496.53;5122144;27;45335;-61
2022/09/03 06:19:10;;;;;;;;;14.75;14.75;;;;;20.61;51.44;100499.28;5122239;27;45303;-60
2022/09/03 06:21:41;;;;;;;;;15.50;14.25;;;;;20.55;51.63;100495.19;5122505;27;45319;-61
2022/09/03 06:24:08;;;;;;;;;14.75;14.75;;;;;20.61;52.02;100504.63;5122268;27;45438;-60
2022/09/03 06:26:33;;;;;;;;;13.25;12.25;;;;;20.60;52.07;100500.25;5122280;27;46121;-60
2022/09/03 06:28:59;;;;;;;;;15.50;14.25;;;;;20.60;51.97;100494.91;5122291;27;45222;-61
2022/09/03 06:31:25;;;;;;;;;14.25;12.50;;;;;20.56;51.96;100496.03;5103525;27;45433;-61
2022/09/03 06:33:51;;;;;;;;;15.50;14.00;;;;;20.61;51.85;100496.63;5122004;27;45373;-62
2022/09/03 06:36:18;;;;;;;;;18.75;16.75;;;;;20.60;52.24;100497.56;5121914;27;46219;-61
2022/09/03 06:38:45;;;;;;;;;14.25;14.25;;;;;20.63;52.39;100494.72;5121663;27;45325;-61
2022/09/03 06:41:13;;;;;;;;;15.50;11.25;;;;;20.65;51.50;100500.81;5122129;27;45324;-61
2022/09/03 06:43:41;;;;;;;;;14.50;13.25;;;;;20.67;52.16;100511.44;5121956;27;45437;-61
2022/09/03 06:46:12;;;;;;;;;14.00;13.75;;;;;20.67;51.87;100511.44;5121786;27;45491;-61
2022/09/03 06:48:40;;;;;;;;;16.00;13.50;;;;;20.67;52.29;100514.94;5121743;27;45256;-61
2022/09/03 06:51:07;;;;;;;;;15.75;13.00;;;;;20.68;51.78;100507.78;5122083;27;45341;-61
2022/09/03 06:53:34;;;;;;;;;16.50;14.25;;;;;20.69;51.95;100510.38;5122083;27;45453;-61
2022/09/03 06:56:02;;;;;;;;;12.75;12.75;;;;;20.75;52.54;100518.06;5121690;27;46176;-61
2022/09/03 06:58:36;;;;;;;;;14.75;13.25;;;;;20.75;52.38;100522.53;5103300;27;46132;-61
2022/09/03 07:01:06;;;;;;;;;16.00;15.75;;;;;20.80;52.62;100514.25;5121702;27;45321;-61
2022/09/03 07:03:33;;;;;;;;;118.50;112.00;;;;;20.86;51.64;100521.88;5121581;27;45339;-61
2022/09/03 07:06:07;;;;;;;;;25.00;21.75;;;;;20.91;51.76;100519.78;5121670;27;46203;-61
2022/09/03 07:08:33;;;;;;;;;15.75;12.00;;;;;20.94;52.32;100514.25;5121623;27;45327;-61
2022/09/03 07:11:04;;;;;;;;;13.50;12.75;;;;;20.97;51.88;100523.88;5121594;27;45480;-61
2022/09/03 07:13:29;;;;;;;;;14.75;13.25;;;;;20.99;52.34;100522.81;5121505;27;45247;-61
2022/09/03 07:16:00;;;;;;;;;14.00;14.00;;;;;21.02;52.38;100519.97;5121332;27;45415;-61
2022/09/03 07:18:25;;;;;;;;;14.75;12.75;;;;;21.06;51.94;100524.16;5121414;27;45258;-61
2022/09/03 07:20:50;;;;;;;;;14.75;13.25;;;;;21.07;51.74;100528.56;5121381;27;45366;-61
2022/09/03 07:23:17;;;;;;;;;12.75;11.50;;;;;21.09;52.12;100520.44;5121681;27;45196;-63
2022/09/03 07:25:42;;;;;;;;;12.25;11.00;;;;;21.12;51.69;100525.63;5121250;27;47012;-63
2022/09/03 07:28:08;;;;;;;;;16.25;13.75;;;;;21.06;51.87;100507.31;5121437;27;45370;-62
2022/09/03 07:30:33;;;;;;;;;11.50;11.50;;;;;21.14;51.66;100529.03;5121496;27;45422;-62
2022/09/03 07:33:01;;;;;;;;;9.00;7.75;;;;;21.16;51.67;100527.13;5102634;27;45465;-61
2022/09/03 07:35:27;;;;;;;;;12.75;12.75;;;;;21.18;51.85;100524.38;5119990;27;47934;-61
2022/09/03 07:37:53;;;;;;;;;14.75;11.75;;;;;21.19;51.91;100536.78;5120844;27;45355;-61
2022/09/03 07:40:19;;;;;;;;;11.25;11.00;;;;;21.20;51.95;100544.69;5121570;27;45427;-62
2022/09/03 07:42:47;;;;;;;;;11.00;10.00;;;;;21.14;51.34;100523.69;5119789;27;45290;-59
2022/09/03 07:45:13;;;;;;;;;13.25;13.25;;;;;21.22;51.53;100541.91;5113104;27;46973;-59
2022/09/03 07:47:45;;;;;;;;;16.50;12.25;;;;;21.20;51.70;100543.84;5103698;27;45732;-62
2022/09/03 07:50:11;;;;;;;;;11.50;9.75;;;;;21.19;52.08;100534.09;5104483;27;45263;-60
2022/09/03 07:52:37;;;;;;;;;14.25;13.00;;;;;21.20;52.15;100538.50;5121032;27;45303;-60
2022/09/03 07:55:03;;;;;;;;;11.25;11.25;;;;;21.14;51.50;100542.41;5121308;27;46098;-60
2022/09/03 07:57:29;;;;;;;;;14.75;13.75;;;;;21.19;51.97;100542.13;5120137;27;45262;-61
2022/09/03 07:59:54;;;;;;;;;13.75;11.00;;;;;21.21;51.76;100543.75;5118412;27;45381;-61
2022/09/03 08:02:20;;;;;;;;;12.25;11.50;;;;;21.25;51.33;100547.09;5117712;27;45378;-61
2022/09/03 08:04:46;;;;;;;;;13.00;11.75;;;;;21.23;51.98;100547.19;5118044;27;48063;-61
2022/09/03 08:07:11;;;;;;;;;13.25;12.25;;;;;21.28;51.96;100546.88;5116744;27;45450;-60
2022/09/03 08:09:37;;;;;;;;;12.00;10.50;;;;;21.31;51.45;100552.06;5119612;27;45530;-60
2022/09/03 08:12:03;;;;;;;;;11.25;10.00;;;;;21.35;51.45;100544.72;5118011;27;45439;-61
2022/09/03 08:14:30;;;;;;;;;11.00;11.00;;;;;21.37;51.43;100551.66;5099561;27;47018;-61
2022/09/03 08:16:58;;;;;;;;;8.50;8.50;;;;;21.42;51.71;100552.25;5099066;27;45446;-61
2022/09/03 08:19:24;;;;;;;;;9.00;9.00;;;;;21.48;51.61;100563.50;5118912;27;45537;-60
2022/09/03 08:21:49;;;;;;;;;8.75;8.00;;;;;21.50;51.40;100561.59;5098011;27;45597;-61
2022/09/03 08:24:16;;;;;;;;;10.50;10.25;;;;;21.53;51.72;100562.22;5116639;27;46060;-61
2022/09/03 08:26:42;;;;;;;;;10.00;9.00;;;;;21.56;52.09;100566.59;5100331;27;45378;-61
2022/09/03 08:29:08;;;;;;;;;7.75;7.75;;;;;21.56;51.46;100563.91;5117618;27;45467;-60
2022/09/03 08:31:35;;;;;;;;;11.00;9.50;;;;;21.58;51.45;100568.22;5117807;27;45296;-60
2022/09/03 08:34:04;;;;;;;;;10.00;10.00;;;;;21.66;51.73;100573.06;5115384;27;45256;-61
2022/09/03 08:36:32;;;;;;;;;10.00;10.00;;;;;21.74;51.60;100585.94;5118400;27;45684;-60
2022/09/03 08:39:02;;;;;;;;;12.75;9.75;;;;;21.81;51.71;100591.75;5099462;27;45839;-61
2022/09/03 08:41:57;;;;;;;;;6.00;6.00;;;;;21.87;51.40;100586.00;5117260;27;45326;-61
2022/09/03 08:44:47;;;;;;;;;11.50;9.50;;;;;21.97;51.73;100579.09;5088587;27;46102;-61
2022/09/03 08:47:33;;;;;;;;;10.25;8.25;;;;;22.03;51.70;100585.88;5117111;27;45468;-61
2022/09/03 08:50:11;;;;;;;;;10.75;10.75;;;;;22.08;51.35;100587.28;5117687;27;45256;-61
2022/09/03 08:52:39;;;;;;;;;9.00;9.00;;;;;22.18;51.16;100589.38;5117725;27;45361;-61
2022/09/03 08:55:18;;;;;;;;;11.50;10.00;;;;;22.26;51.43;100588.88;5117029;27;45453;-61
2022/09/03 08:57:48;;;;;;;;;13.25;11.75;;;;;22.31;51.33;100592.94;5117341;27;45257;-62
2022/09/03 09:00:15;;;;;;;;;9.50;9.50;;;;;22.37;51.20;100607.78;5102182;27;45371;-61
2022/09/03 09:03:02;;;;;;;;;10.00;10.00;;;;;22.39;51.28;100611.25;5100714;27;45371;-62
2022/09/03 09:05:42;;;;;;;;;11.00;9.00;;;;;22.45;51.79;100600.13;5120846;27;45480;-61
2022/09/03 09:08:21;;;;;;;;;10.00;9.25;;;;;22.51;51.39;100597.00;5120784;27;45487;-62
2022/09/03 09:10:53;;;;;;;;;9.75;9.00;;;;;22.59;51.35;100598.31;5100714;27;45366;-61
2022/09/03 09:13:44;;;;;;;;;9.50;8.00;;;;;22.63;51.16;100600.72;5117266;27;45532;-61
2022/09/03 09:16:22;;;;;;;;;12.25;11.00;;;;;22.69;50.86;100605.66;5119147;27;46898;-61
2022/09/03 09:19:08;;;;;;;;;8.50;8.50;;;;;22.75;51.09;100608.88;5120968;27;45254;-61
2022/09/03 09:21:45;;;;;;;;;10.25;9.25;;;;;22.81;51.13;100606.63;5121334;27;45305;-61
2022/09/03 09:24:42;;;;;;;;;9.25;9.25;;;;;22.85;50.96;100607.28;5119986;27;45411;-62
2022/09/03 09:27:08;;;;;;;;;7.50;7.00;;;;;22.89;50.99;100603.41;5096473;27;45439;-62
2022/09/03 09:29:36;;;;;;;;;13.00;11.50;;;;;22.96;51.11;100602.03;5122100;27;45389;-62
2022/09/03 09:32:06;;;;;;;;;13.00;13.00;;;;;23.06;50.76;100602.28;5121659;27;45171;-62
2022/09/03 09:34:36;;;;;;;;;9.50;9.50;;;;;23.18;50.73;100604.16;5121331;27;45319;-64
2022/09/03 09:37:04;;;;;;;;;11.00;11.00;;;;;23.27;50.62;100605.31;5115215;27;46175;-69
2022/09/03 09:39:30;;;;;;;;;10.75;10.25;;;;;23.36;50.46;100615.41;5102288;27;45292;-71
2022/09/03 09:42:14;;;;;;;;;11.00;10.00;;;;;23.41;50.72;100612.41;5104208;27;45355;-69
2022/09/03 09:44:42;;;;;;;;;9.25;8.25;;;;;23.48;50.79;100610.13;5123111;27;45580;-66
2022/09/03 09:47:16;;;;;;;;;9.00;9.00;;;;;23.58;50.86;100613.88;5122804;27;45310;-69
2022/09/03 09:49:45;;;;;;;;;8.25;7.25;;;;;23.68;50.94;100612.28;5122730;27;45356;-67
2022/09/03 09:52:14;;;;;;;;;7.00;7.00;;;;;23.79;50.65;100610.63;5122406;27;45431;-67
2022/09/03 09:54:41;;;;;;;;;9.00;9.00;;;;;23.86;50.36;100601.16;5122712;27;45538;-71
2022/09/03 09:57:17;;;;;;;;;9.00;9.00;;;;;23.93;50.56;100612.34;5104207;27;46373;-69
2022/09/03 09:59:43;;;;;;;;;11.25;11.25;;;;;24.05;50.15;100616.81;5122664;27;45279;-74
2022/09/03 10:02:13;;;;;;;;;8.00;7.00;;;;;24.04;50.14;100593.63;5122764;27;45377;-65
2022/09/03 10:04:39;;;;;;;;;14.75;11.25;;;;;24.21;49.80;100610.31;5122822;27;45234;-67
2022/09/03 10:07:30;;;;;;;;;9.00;7.50;;;;;24.30;49.77;100618.56;5121672;27;47164;-68
2022/09/03 10:09:59;;;;;;;;;7.75;7.75;;;;;24.40;49.70;100615.19;5112582;27;45321;-67
2022/09/03 10:12:34;;;;;;;;;6.75;6.75;;;;;24.46;49.56;100614.72;5102080;27;45154;-65
2022/09/03 10:15:26;;;;;;;;;8.25;8.25;;;;;24.58;49.87;100619.19;5083403;27;45279;-67
2022/09/03 10:18:01;;;;;;;;;7.25;5.75;;;;;24.67;49.46;100617.66;5092556;27;46900;-68
2022/09/03 10:20:43;;;;;;;;;7.00;6.00;;;;;24.77;49.40;100618.66;5122484;27;45224;-69
2022/09/03 10:23:17;;;;;;;;;11.50;7.75;;;;;24.88;49.44;100630.41;5104001;27;45373;-72
2022/09/03 10:26:07;;;;;;;;;9.00;8.00;;;;;24.95;49.30;100613.69;5122441;27;45492;-68
2022/09/03 10:28:39;;;;;;;;;7.00;6.25;;;;;25.07;48.46;100624.47;5121720;27;46016;-66
2022/09/03 10:31:17;;;;;;;;;7.50;5.25;;;;;25.14;48.53;100631.09;5121123;27;45338;-66
2022/09/03 10:33:50;;;;;;;;;7.50;7.50;;;;;25.20;48.83;100638.69;5122343;27;45181;-71
2022/09/03 10:36:33;;;;;;;;;9.50;7.00;;;;;25.21;49.00;100634.19;5103801;27;45527;-76
2022/09/03 10:39:12;;;;;;;;;8.00;8.00;;;;;25.24;48.61;100650.06;5121429;27;46385;-70
2022/09/03 10:42:18;;;;;;;;;6.00;5.50;;;;;25.21;48.43;100648.47;5122101;27;45612;-69
2022/09/03 10:44:50;;;;;;;;;7.75;7.75;;;;;25.15;48.02;100638.19;5080845;27;45430;-62
2022/09/03 10:47:36;;;;;;;;;6.50;6.50;;;;;25.12;48.01;100643.81;5121922;27;45426;-69
2022/09/03 10:50:22;;;;;;;;;6.00;6.00;;;;;25.06;48.41;100639.75;5122025;27;45460;-61
2022/09/03 10:53:05;;;;;;;;;8.25;6.25;;;;;25.03;48.19;100650.75;5121865;27;45173;-58
2022/09/03 10:55:37;;;;;;;;;7.50;6.25;;;;;25.01;47.81;100641.13;5121924;27;45320;-62
2022/09/03 10:58:22;;;;;;;;;8.00;8.00;;;;;24.99;48.17;100639.38;5121785;27;45511;-60
2022/09/03 11:01:20;;;;;;;;;6.00;6.00;;;;;25.06;47.72;100639.75;5121714;27;47368;-60
2022/09/03 11:04:14;;;;;;;;;6.75;6.75;;;;;25.23;48.27;100633.09;5120305;27;45247;-61
2022/09/03 11:06:51;;;;;;;;;8.50;7.50;;;;;25.52;48.89;100627.28;5121988;27;45346;-61
2022/09/03 11:09:26;;;;;;;;;5.00;5.00;;;;;25.85;48.94;100625.56;5121581;27;45238;-59
2022/09/03 12:45:43;;;;;;;;;1.00;1.00;;;;;25.79;43.35;100663.72;5472140;23;45805;-60
2022/09/03 12:48:17;;;;;;;;;1.75;1.75;;;;;25.91;44.06;100653.81;4942470;28;45273;-60
2022/09/03 12:50:44;;;;;;;;;3.50;2.50;;;;;26.23;45.16;100661.16;4965051;28;45327;-60
2022/09/03 12:53:13;;;;;;;;;3.00;3.00;;;;;26.67;45.96;100653.91;4964296;28;46419;-60
2022/09/03 12:55:46;;;;;;;;;3.50;2.00;;;;;27.18;45.63;100663.13;4963538;28;45556;-60
2022/09/03 12:58:11;;;;;;;;;2.00;2.00;;;;;27.64;45.28;100655.59;4963472;28;45335;-64
2022/09/03 13:01:01;;;;;;;;;3.00;3.00;;;;;28.06;45.32;100660.03;4963364;28;45319;-61
2022/09/03 13:03:28;;;;;;;;;2.75;2.00;;;;;28.47;44.89;100649.19;4955564;28;46735;-60
2022/09/03 13:06:00;;;;;;;;;2.00;1.25;;;;;28.71;45.04;100656.91;4965603;28;45383;-59
2022/09/03 13:08:29;;;;;;;;;2.75;2.75;;;;;29.00;45.08;100658.75;4950619;28;45317;-61
2022/09/03 13:10:58;;;;;;;;;2.25;1.25;;;;;29.26;44.38;100655.41;4944697;28;45403;-63